createdAt,value
2019-05-22T00:02:24.744Z,93.59
2019-05-22T00:05:06.422Z,93.74
2019-05-22T00:07:35.592Z,93.80
2019-05-22T00:10:06.837Z,94.12
2019-05-22T00:12:46.597Z,93.30
2019-05-22T00:15:10.369Z,93.30
2019-05-22T00:17:39.999Z,93.91
2019-05-22T00:20:11.406Z,93.45
2019-05-22T00:22:42.876Z,94.15
2019-05-22T00:25:16.017Z,93.63
2019-05-22T00:27:47.047Z,94.25
2019-05-22T00:30:16.571Z,93.51
2019-05-22T00:32:47.481Z,93.92
2019-05-22T00:35:19.201Z,94.39
2019-05-22T00:37:47.969Z,94.27
2019-05-22T00:40:18.520Z,93.89
2019-05-22T00:43:02.867Z,94.21
2019-05-22T00:45:22.699Z,94.10
2019-05-22T00:47:51.977Z,94.11
2019-05-22T00:50:24.868Z,94.13
2019-05-22T00:53:12.297Z,93.60
2019-05-22T00:55:58.510Z,93.75
2019-05-22T00:58:40.181Z,93.33
2019-05-22T01:01:18.285Z,93.68
2019-05-22T01:03:49.270Z,93.70
2019-05-22T01:06:20.947Z,92.90
2019-05-22T01:08:52.707Z,93.55
2019-05-22T01:11:24.518Z,93.36
2019-05-22T01:13:54.151Z,93.49
2019-05-22T01:16:24.932Z,93.00
2019-05-22T01:18:54.494Z,93.88
2019-05-22T01:21:25.486Z,93.46
2019-05-22T01:23:59.876Z,92.98
2019-05-22T01:26:29.032Z,92.45
2019-05-22T01:28:58.288Z,92.79
2019-05-22T01:31:33.320Z,92.92
2019-05-22T01:34:07.881Z,92.55
2019-05-22T01:36:44.592Z,92.88
2019-05-22T01:39:43.885Z,92.95
2019-05-22T01:42:17.931Z,92.86
2019-05-22T01:45:00.979Z,93.31
2019-05-22T01:47:48.691Z,93.44
2019-05-22T01:50:25.590Z,93.27
2019-05-22T01:52:56.046Z,93.26
2019-05-22T01:55:27.106Z,92.79
2019-05-22T01:57:55.983Z,92.70
2019-05-22T02:00:24.916Z,92.22
2019-05-22T02:02:54.044Z,92.12
2019-05-22T02:05:25.125Z,92.58
2019-05-22T02:07:55.938Z,92.51
2019-05-22T02:10:30.351Z,92.05
2019-05-22T02:13:02.921Z,91.86
2019-05-22T02:15:34.779Z,91.92
2019-05-22T02:18:04.737Z,91.91
2019-05-22T02:20:33.811Z,91.72
2019-05-22T02:23:03.249Z,91.17
2019-05-22T02:25:32.439Z,91.56
2019-05-22T02:28:01.617Z,92.18
2019-05-22T02:30:33.139Z,92.57
2019-05-22T02:33:02.344Z,92.19
2019-05-22T02:35:31.412Z,91.92
2019-05-22T02:38:01.237Z,90.93
2019-05-22T02:40:33.487Z,91.29
2019-05-22T02:43:04.173Z,90.95
2019-05-22T02:45:33.909Z,91.31
2019-05-22T02:48:05.895Z,91.32
2019-05-22T02:50:35.270Z,90.88
2019-05-22T02:53:07.503Z,90.27
2019-05-22T02:55:37.477Z,90.35
2019-05-22T02:58:07.714Z,91.01
2019-05-22T03:00:48.708Z,90.60
2019-05-22T03:03:17.652Z,90.11
2019-05-22T03:05:48.299Z,90.35
2019-05-22T03:08:18.377Z,90.62
2019-05-22T03:10:47.447Z,90.06
2019-05-22T03:13:17.088Z,90.53
2019-05-22T03:15:46.724Z,90.20
2019-05-22T03:18:17.110Z,90.41
2019-05-22T03:20:48.225Z,90.56
2019-05-22T03:23:37.787Z,90.88
2019-05-22T03:26:10.782Z,91.23
2019-05-22T03:28:41.007Z,91.49
2019-05-22T03:31:11.086Z,92.74
2019-05-22T03:33:41.226Z,93.53
2019-05-22T03:36:13.832Z,93.66
2019-05-22T03:38:44.105Z,92.93
2019-05-22T03:41:13.400Z,93.11
2019-05-22T03:43:44.979Z,93.10
2019-05-22T03:46:30.774Z,93.23
2019-05-22T03:49:00.660Z,93.46
2019-05-22T03:51:29.969Z,93.80
2019-05-22T03:53:59.306Z,93.39
2019-05-22T03:56:30.125Z,93.13
2019-05-22T03:59:00.877Z,93.45
2019-05-22T04:01:31.416Z,94.07
2019-05-22T04:04:02.025Z,93.57
2019-05-22T04:06:32.952Z,93.48
2019-05-22T04:09:10.426Z,93.69
2019-05-22T04:11:42.740Z,94.16
2019-05-22T04:14:12.413Z,94.14
2019-05-22T04:16:41.482Z,93.46
2019-05-22T04:19:10.678Z,93.92
2019-05-22T04:21:39.857Z,94.74
2019-05-22T04:24:09.553Z,95.06
2019-05-22T04:26:38.496Z,94.63
2019-05-22T04:29:09.658Z,94.36
2019-05-22T04:31:56.161Z,94.43
2019-05-22T04:34:25.620Z,93.66
2019-05-22T04:36:55.555Z,94.11
2019-05-22T04:39:27.341Z,93.76
2019-05-22T04:41:58.899Z,94.53
2019-05-22T04:44:28.241Z,94.41
2019-05-22T04:46:57.264Z,94.69
2019-05-22T04:49:25.998Z,94.72
2019-05-22T04:51:55.741Z,94.08
2019-05-22T04:54:24.714Z,94.63
2019-05-22T04:56:53.649Z,94.98
2019-05-22T04:59:22.771Z,94.88
2019-05-22T05:01:51.842Z,94.74
2019-05-22T05:04:21.265Z,94.73
2019-05-22T05:06:50.574Z,94.66
2019-05-22T05:09:19.715Z,94.60
2019-05-22T05:11:49.455Z,94.31
2019-05-22T05:14:18.500Z,93.91
2019-05-22T05:16:48.702Z,94.12
2019-05-22T05:19:17.585Z,94.88
2019-05-22T05:21:46.899Z,94.77
2019-05-22T05:24:15.951Z,95.14
2019-05-22T05:26:46.020Z,95.53
2019-05-22T05:29:30.457Z,95.85
2019-05-22T05:31:59.759Z,95.85
2019-05-22T05:34:55.717Z,95.22
2019-05-22T05:37:25.077Z,95.52
2019-05-22T05:40:21.337Z,95.73
2019-05-22T05:42:50.816Z,95.81
2019-05-22T05:45:19.865Z,96.32
2019-05-22T05:47:48.558Z,96.28
2019-05-22T05:50:18.267Z,96.11
2019-05-22T05:52:48.043Z,96.93
2019-05-22T05:55:17.951Z,96.81
2019-05-22T05:58:32.427Z,96.57
2019-05-22T06:01:13.005Z,96.25
2019-05-22T06:03:43.502Z,96.37
2019-05-22T06:06:57.550Z,96.86
2019-05-22T06:09:28.256Z,97.20
2019-05-22T06:12:05.417Z,96.35
2019-05-22T06:14:35.872Z,96.38
2019-05-22T06:17:44.726Z,96.52
2019-05-22T06:20:20.504Z,96.81
2019-05-22T06:23:46.014Z,96.50
2019-05-22T06:26:25.366Z,96.11
2019-05-22T06:28:54.135Z,95.41
2019-05-22T06:31:36.070Z,96.24
2019-05-22T06:34:04.938Z,96.28
2019-05-22T06:36:33.960Z,95.81
2019-05-22T06:39:16.561Z,95.78
2019-05-22T06:41:46.856Z,95.85
2019-05-22T06:44:35.289Z,94.99
2019-05-22T06:47:06.481Z,95.00
2019-05-22T06:49:45.502Z,94.39
2019-05-22T06:52:17.883Z,94.65
2019-05-22T06:54:47.600Z,94.25
2019-05-22T06:57:23.344Z,93.97
2019-05-22T07:00:11.562Z,95.29
2019-05-22T07:02:24.972Z,95.43
2019-05-22T07:04:54.866Z,94.83
2019-05-22T07:07:27.499Z,94.57
2019-05-22T07:09:56.749Z,95.04
2019-05-22T07:12:28.475Z,94.95
2019-05-22T07:15:31.733Z,94.61
2019-05-22T07:18:01.244Z,95.21
2019-05-22T07:20:33.298Z,95.53
2019-05-22T07:23:04.207Z,95.32
2019-05-22T07:25:35.581Z,95.10
2019-05-22T07:28:05.535Z,94.96
2019-05-22T07:30:34.631Z,95.54
2019-05-22T07:33:04.741Z,95.27
2019-05-22T07:35:46.038Z,95.66
2019-05-22T07:38:04.329Z,94.98
2019-05-22T07:40:33.633Z,94.26
2019-05-22T07:43:02.657Z,94.33
2019-05-22T07:45:32.730Z,93.96
2019-05-22T07:48:02.384Z,94.48
2019-05-22T07:50:33.987Z,94.94
2019-05-22T07:53:03.333Z,95.13
2019-05-22T07:55:53.826Z,95.13
2019-05-22T07:58:24.674Z,95.60
2019-05-22T08:00:59.072Z,94.94
2019-05-22T08:03:28.659Z,94.78
2019-05-22T08:05:58.857Z,95.37
2019-05-22T08:08:29.919Z,95.10
2019-05-22T08:10:59.717Z,95.41
2019-05-22T08:13:29.293Z,95.94
2019-05-22T08:15:58.576Z,96.01
2019-05-22T08:18:30.388Z,95.97
2019-05-22T08:20:59.441Z,95.73
2019-05-22T08:23:28.309Z,96.23
2019-05-22T08:25:58.755Z,96.53
2019-05-22T08:28:30.198Z,96.77
2019-05-22T08:31:00.506Z,96.45
2019-05-22T08:33:30.485Z,96.28
2019-05-22T08:35:59.554Z,95.77
2019-05-22T08:38:31.220Z,94.30
2019-05-22T08:41:01.472Z,94.68
2019-05-22T08:43:31.086Z,94.75
2019-05-22T08:46:00.523Z,95.12
2019-05-22T08:48:30.696Z,94.82
2019-05-22T08:51:00.138Z,94.99
2019-05-22T08:53:44.364Z,95.39
2019-05-22T08:56:00.785Z,94.98
2019-05-22T08:58:29.980Z,95.08
2019-05-22T09:00:58.752Z,95.54
2019-05-22T09:03:27.779Z,95.37
2019-05-22T09:05:56.787Z,94.92
2019-05-22T09:08:25.713Z,94.72
2019-05-22T09:10:54.804Z,94.71
2019-05-22T09:13:24.079Z,93.85
2019-05-22T09:15:53.684Z,94.52
2019-05-22T09:18:23.015Z,95.00
2019-05-22T09:20:51.890Z,95.07
2019-05-22T09:23:20.660Z,95.61
2019-05-22T09:25:49.631Z,95.07
2019-05-22T09:28:18.785Z,95.39
2019-05-22T09:30:47.787Z,94.90
2019-05-22T09:33:17.871Z,94.49
2019-05-22T09:35:46.893Z,94.68
2019-05-22T09:38:15.712Z,94.45
2019-05-22T09:40:45.115Z,94.37
2019-05-22T09:43:14.175Z,94.97
2019-05-22T09:45:42.934Z,95.30
2019-05-22T09:48:11.709Z,94.80
2019-05-22T09:50:40.737Z,93.96
2019-05-22T09:53:09.775Z,94.01
2019-05-22T09:55:40.657Z,93.93
2019-05-22T09:58:09.348Z,93.90
2019-05-22T10:00:38.640Z,92.43
2019-05-22T10:03:07.613Z,91.92
2019-05-22T10:05:38.213Z,91.84
2019-05-22T10:08:07.645Z,90.73
2019-05-22T10:10:36.544Z,90.87
2019-05-22T10:13:05.450Z,90.21
2019-05-22T10:15:34.560Z,91.47
2019-05-22T10:18:03.754Z,90.53
2019-05-22T10:20:32.880Z,89.40
2019-05-22T10:23:14.605Z,89.65
2019-05-22T10:25:33.234Z,88.54
2019-05-22T10:28:02.253Z,87.65
2019-05-22T10:30:31.472Z,88.01
2019-05-22T10:33:00.221Z,86.07
2019-05-22T10:35:31.866Z,86.11
2019-05-22T10:38:01.418Z,83.11
2019-05-22T10:40:30.177Z,83.78
2019-05-22T10:42:58.860Z,82.47
2019-05-22T10:45:28.457Z,83.21
2019-05-22T10:47:57.801Z,83.32
2019-05-22T10:50:26.573Z,82.29
2019-05-22T10:52:55.736Z,83.76
2019-05-22T10:55:24.952Z,82.90
2019-05-22T10:57:54.355Z,82.63
2019-05-22T11:00:24.908Z,82.49
2019-05-22T11:02:53.864Z,82.45
2019-05-22T11:05:22.702Z,82.00
2019-05-22T11:07:52.309Z,82.10
2019-05-22T11:10:24.266Z,81.68
2019-05-22T11:12:53.873Z,81.92
2019-05-22T11:15:23.669Z,81.78
2019-05-22T11:17:53.706Z,82.59
2019-05-22T11:20:24.462Z,81.79
2019-05-22T11:22:54.290Z,81.98
2019-05-22T11:25:23.535Z,81.25
2019-05-22T11:27:54.270Z,82.34
2019-05-22T11:30:24.016Z,80.99
2019-05-22T11:32:53.589Z,81.30
2019-05-22T11:35:22.892Z,80.93
2019-05-22T11:37:51.774Z,80.34
2019-05-22T11:40:21.367Z,79.67
2019-05-22T11:42:51.930Z,79.77
2019-05-22T11:45:22.084Z,77.57
2019-05-22T11:47:51.511Z,79.04
2019-05-22T11:50:21.806Z,78.91
2019-05-22T11:52:51.246Z,79.51
2019-05-22T11:55:20.957Z,80.33
2019-05-22T11:57:51.949Z,80.94
2019-05-22T12:00:23.070Z,80.39
2019-05-22T12:02:52.235Z,81.34
2019-05-22T12:05:21.931Z,79.61
2019-05-22T12:07:51.612Z,79.15
2019-05-22T12:10:22.412Z,78.92
2019-05-22T12:12:52.782Z,78.76
2019-05-22T12:15:23.870Z,77.06
2019-05-22T12:17:53.418Z,76.54
2019-05-22T12:20:24.328Z,76.90
2019-05-22T12:22:53.261Z,76.27
2019-05-22T12:25:22.819Z,76.11
2019-05-22T12:27:51.912Z,75.97
2019-05-22T12:30:21.797Z,76.53
2019-05-22T12:32:52.438Z,76.25
2019-05-22T12:35:22.104Z,75.08
2019-05-22T12:37:50.895Z,73.33
2019-05-22T12:40:20.816Z,72.66
2019-05-22T12:42:49.707Z,74.16
2019-05-22T12:45:26.896Z,73.54
2019-05-22T12:47:56.112Z,71.70
2019-05-22T12:50:29.036Z,72.04
2019-05-22T12:52:58.742Z,71.78
2019-05-22T12:55:27.780Z,72.48
2019-05-22T12:57:56.557Z,70.71
2019-05-22T13:00:27.042Z,70.52
2019-05-22T13:02:56.544Z,70.00
2019-05-22T13:05:27.363Z,71.14
2019-05-22T13:07:57.001Z,68.78
2019-05-22T13:10:27.955Z,69.40
2019-05-22T13:12:57.208Z,68.68
2019-05-22T13:15:26.757Z,67.83
2019-05-22T13:17:57.949Z,68.40
2019-05-22T13:20:41.754Z,67.67
2019-05-22T13:23:03.264Z,64.94
2019-05-22T13:25:35.937Z,65.46
2019-05-22T13:28:05.751Z,66.39
2019-05-22T13:30:36.338Z,65.33
2019-05-22T13:33:05.919Z,65.74
2019-05-22T13:35:35.537Z,64.23
2019-05-22T13:38:05.411Z,64.38
2019-05-22T13:40:34.809Z,63.66
2019-05-22T13:43:04.781Z,62.48
2019-05-22T13:45:34.106Z,61.00
2019-05-22T13:48:04.385Z,60.85
2019-05-22T13:50:33.359Z,61.64
2019-05-22T13:53:04.899Z,62.79
2019-05-22T13:55:33.840Z,62.69
2019-05-22T13:58:03.410Z,61.38
2019-05-22T14:00:32.619Z,62.48
2019-05-22T14:03:01.913Z,63.68
2019-05-22T14:05:33.114Z,64.11
2019-05-22T14:08:01.907Z,63.21
2019-05-22T14:10:31.527Z,62.10
2019-05-22T14:13:01.278Z,62.39
2019-05-22T14:15:47.782Z,59.73
2019-05-22T14:18:02.294Z,61.27
2019-05-22T14:20:31.112Z,58.27
2019-05-22T14:22:59.956Z,58.71
2019-05-22T14:25:29.249Z,58.88
2019-05-22T14:27:58.143Z,58.35
2019-05-22T14:30:27.891Z,59.16
2019-05-22T14:33:03.964Z,59.55
2019-05-22T14:35:47.816Z,59.49
2019-05-22T14:38:06.406Z,59.07
2019-05-22T14:40:37.769Z,58.45
2019-05-22T14:43:07.580Z,58.40
2019-05-22T14:45:37.643Z,58.69
2019-05-22T14:48:06.506Z,59.96
2019-05-22T14:50:36.010Z,59.52
2019-05-22T14:53:04.818Z,57.87
2019-05-22T14:55:35.099Z,59.34
2019-05-22T14:58:05.859Z,60.09
2019-05-22T15:00:35.201Z,60.18
2019-05-22T15:03:05.037Z,59.45
2019-05-22T15:05:34.349Z,58.10
2019-05-22T15:08:03.609Z,56.96
2019-05-22T15:10:33.120Z,56.67
2019-05-22T15:13:02.727Z,58.45
2019-05-22T15:15:31.570Z,56.74
2019-05-22T15:18:00.681Z,55.29
2019-05-22T15:20:46.876Z,55.81
2019-05-22T15:23:18.310Z,53.44
2019-05-22T15:25:48.215Z,53.63
2019-05-22T15:28:17.044Z,54.18
2019-05-22T15:30:46.044Z,52.91
2019-05-22T15:33:15.905Z,55.26
2019-05-22T15:35:45.812Z,55.46
2019-05-22T15:38:16.405Z,55.19
2019-05-22T15:40:46.138Z,56.10
2019-05-22T15:43:16.022Z,54.85
2019-05-22T15:45:45.313Z,55.40
2019-05-22T15:48:21.513Z,54.33
2019-05-22T15:50:53.523Z,54.96
2019-05-22T15:53:45.349Z,55.44
2019-05-22T15:56:14.934Z,55.98
2019-05-22T15:58:47.905Z,54.71
2019-05-22T16:01:20.040Z,53.87
2019-05-22T16:03:51.230Z,53.18
2019-05-22T16:06:21.827Z,53.07
2019-05-22T16:08:50.981Z,53.90
2019-05-22T16:11:21.467Z,53.73
2019-05-22T16:13:51.296Z,53.11
2019-05-22T16:16:24.311Z,53.56
2019-05-22T16:18:55.978Z,52.69
2019-05-22T16:21:27.231Z,54.39
2019-05-22T16:23:57.945Z,55.13
2019-05-22T16:26:27.669Z,53.98
2019-05-22T16:28:56.937Z,53.53
2019-05-22T16:31:27.162Z,53.52
2019-05-22T16:33:56.103Z,52.27
2019-05-22T16:36:25.729Z,53.22
2019-05-22T16:38:54.836Z,53.17
2019-05-22T16:41:25.632Z,53.38
2019-05-22T16:43:55.889Z,52.37
2019-05-22T16:46:25.641Z,52.93
2019-05-22T16:48:54.770Z,53.63
2019-05-22T16:51:25.626Z,50.53
2019-05-22T16:53:57.333Z,51.92
2019-05-22T16:56:26.491Z,52.07
2019-05-22T16:58:55.990Z,52.22
2019-05-22T17:01:26.403Z,53.38
2019-05-22T17:03:58.450Z,52.93
2019-05-22T17:06:27.341Z,53.91
2019-05-22T17:08:57.846Z,52.03
2019-05-22T17:11:27.723Z,53.55
2019-05-22T17:13:59.066Z,54.16
2019-05-22T17:16:30.327Z,52.38
2019-05-22T17:18:59.269Z,53.71
2019-05-22T17:21:29.475Z,52.67
2019-05-22T17:24:00.163Z,52.15
2019-05-22T17:26:30.099Z,53.94
2019-05-22T17:28:59.879Z,54.47
2019-05-22T17:31:29.719Z,55.49
2019-05-22T17:33:59.459Z,54.52
2019-05-22T17:36:30.613Z,54.99
2019-05-22T17:39:00.053Z,53.89
2019-05-22T17:41:30.479Z,54.90
2019-05-22T17:44:00.754Z,53.21
2019-05-22T17:46:31.407Z,55.11
2019-05-22T17:49:01.282Z,55.80
2019-05-22T17:51:30.941Z,55.67
2019-05-22T17:54:00.534Z,55.13
2019-05-22T17:56:30.581Z,56.17
2019-05-22T17:58:59.714Z,57.12
2019-05-22T18:01:28.752Z,56.63
2019-05-22T18:03:57.565Z,57.51
2019-05-22T18:06:26.624Z,57.18
2019-05-22T18:08:55.643Z,57.37
2019-05-22T18:11:25.018Z,58.08
2019-05-22T18:13:58.999Z,57.98
2019-05-22T18:16:28.207Z,58.24
2019-05-22T18:18:57.487Z,58.43
2019-05-22T18:21:26.364Z,58.82
2019-05-22T18:23:55.205Z,58.52
2019-05-22T18:26:24.743Z,59.21
2019-05-22T18:28:53.482Z,60.24
2019-05-22T18:31:22.242Z,59.15
2019-05-22T18:33:51.313Z,58.19
2019-05-22T18:36:20.073Z,58.70
2019-05-22T18:38:49.093Z,61.70
2019-05-22T18:41:17.929Z,61.96
2019-05-22T18:43:46.610Z,64.66
2019-05-22T18:46:15.971Z,66.16
2019-05-22T18:48:47.723Z,67.15
2019-05-22T18:51:15.100Z,67.11
2019-05-22T18:53:43.776Z,67.77
2019-05-22T18:56:13.268Z,66.73
2019-05-22T18:58:44.027Z,66.16
2019-05-22T19:01:16.208Z,65.18
2019-05-22T19:03:43.494Z,65.10
2019-05-22T19:06:12.349Z,64.38
2019-05-22T19:08:41.718Z,64.34
2019-05-22T19:11:10.406Z,66.17
2019-05-22T19:13:39.158Z,68.04
2019-05-22T19:16:08.283Z,68.75
2019-05-22T19:18:37.304Z,69.59
2019-05-22T19:21:06.347Z,67.13
2019-05-22T19:23:35.366Z,66.10
2019-05-22T19:26:05.886Z,67.89
2019-05-22T19:28:43.281Z,68.71
2019-05-22T19:31:05.859Z,70.40
2019-05-22T19:33:35.215Z,70.63
2019-05-22T19:36:04.657Z,71.00
2019-05-22T19:38:33.468Z,72.06
2019-05-22T19:41:02.597Z,72.85
2019-05-22T19:43:31.567Z,73.04
2019-05-22T19:46:00.622Z,73.58
2019-05-22T19:48:29.500Z,74.14
2019-05-22T19:51:01.510Z,74.42
2019-05-22T19:53:30.084Z,74.04
2019-05-22T19:55:59.439Z,74.68
2019-05-22T19:58:28.573Z,74.12
2019-05-22T20:00:57.715Z,71.52
2019-05-22T20:03:26.547Z,71.62
2019-05-22T20:05:55.471Z,71.67
2019-05-22T20:08:24.894Z,71.93
2019-05-22T20:10:54.452Z,73.17
2019-05-22T20:13:23.922Z,74.10
2019-05-22T20:15:52.662Z,74.97
2019-05-22T20:18:21.875Z,75.05
2019-05-22T20:20:51.883Z,75.28
2019-05-22T20:23:34.639Z,75.21
2019-05-22T20:25:52.372Z,75.98
2019-05-22T20:28:21.461Z,76.29
2019-05-22T20:30:50.668Z,75.67
2019-05-22T20:33:20.682Z,75.27
2019-05-22T20:35:49.366Z,74.73
2019-05-22T20:38:18.458Z,74.70
2019-05-22T20:40:47.858Z,73.90
2019-05-22T20:43:17.159Z,72.80
2019-05-22T20:45:46.564Z,71.53
2019-05-22T20:48:24.669Z,71.14
2019-05-22T20:50:55.329Z,69.94
2019-05-22T20:53:25.665Z,69.60
2019-05-22T20:55:55.018Z,69.60
2019-05-22T20:58:24.083Z,69.76
2019-05-22T21:00:53.527Z,69.44
2019-05-22T21:03:23.049Z,69.28
2019-05-22T21:05:54.298Z,69.01
2019-05-22T21:08:25.233Z,68.80
2019-05-22T21:10:55.731Z,68.89
2019-05-22T21:13:24.499Z,68.43
2019-05-22T21:15:54.934Z,69.01
2019-05-22T21:18:28.205Z,68.86
2019-05-22T21:20:57.415Z,68.62
2019-05-22T21:23:28.717Z,69.06
2019-05-22T21:25:57.814Z,69.21
2019-05-22T21:28:26.881Z,69.48
2019-05-22T21:30:57.574Z,69.55
2019-05-22T21:33:26.307Z,69.59
2019-05-22T21:35:55.301Z,69.75
2019-05-22T21:38:24.638Z,69.68
2019-05-22T21:40:56.051Z,69.90
2019-05-22T21:43:24.872Z,69.85
2019-05-22T21:45:53.811Z,70.09
2019-05-22T21:48:22.498Z,69.90
2019-05-22T21:50:51.508Z,69.81
2019-05-22T21:53:21.208Z,69.71
2019-05-22T21:56:03.696Z,69.84
2019-05-22T21:58:21.244Z,69.70
2019-05-22T22:01:29.371Z,69.77
2019-05-22T22:04:20.784Z,69.89
2019-05-22T22:06:51.440Z,69.83
2019-05-22T22:09:21.934Z,70.14
2019-05-22T22:11:50.915Z,70.29
2019-05-22T22:14:20.896Z,70.18
2019-05-22T22:16:49.936Z,70.29
2019-05-22T22:19:20.494Z,70.55
2019-05-22T22:21:50.278Z,70.70
2019-05-22T22:24:20.389Z,70.74
2019-05-22T22:26:50.208Z,70.79
2019-05-22T22:29:19.814Z,70.91
2019-05-22T22:31:48.944Z,71.11
2019-05-22T22:34:27.659Z,71.35
2019-05-22T22:36:57.734Z,71.50
2019-05-22T22:39:28.385Z,71.73
2019-05-22T22:41:59.715Z,72.49
2019-05-22T22:44:29.579Z,72.55
2019-05-22T22:47:04.314Z,72.76
2019-05-22T22:49:35.183Z,72.76
2019-05-22T22:52:07.664Z,73.46
2019-05-22T22:54:37.629Z,72.76
2019-05-22T22:57:06.947Z,72.72
2019-05-22T22:59:36.380Z,72.54
2019-05-22T23:02:09.627Z,72.14
2019-05-22T23:04:39.760Z,72.12
2019-05-22T23:07:09.789Z,71.63
2019-05-22T23:09:42.720Z,71.07
2019-05-22T23:12:12.936Z,70.63
2019-05-22T23:14:47.989Z,70.50
2019-05-22T23:17:20.510Z,70.96
2019-05-22T23:19:48.238Z,71.19
2019-05-22T23:22:19.537Z,71.59
2019-05-22T23:24:52.099Z,72.16
2019-05-22T23:27:21.486Z,72.29
2019-05-22T23:29:51.345Z,72.69
2019-05-22T23:32:21.774Z,73.34
2019-05-22T23:34:51.282Z,73.39
2019-05-22T23:37:22.474Z,73.43
2019-05-22T23:39:56.925Z,73.51
2019-05-22T23:42:31.465Z,73.75
2019-05-22T23:45:03.637Z,73.78
2019-05-22T23:47:32.661Z,74.01
2019-05-22T23:50:01.669Z,73.94
2019-05-22T23:52:31.041Z,73.84
2019-05-22T23:55:01.169Z,73.93
2019-05-22T23:57:30.753Z,74.24
